createdAt,value
2018-03-15T00:00:48.504Z,77.86
2018-03-15T00:01:55.028Z,78.02
2018-03-15T00:02:59.539Z,77.86
2018-03-15T00:04:06.051Z,77.86
2018-03-15T00:05:10.555Z,78.58
2018-03-15T00:06:16.052Z,78.34
2018-03-15T00:07:22.588Z,78.62
2018-03-15T00:08:27.058Z,78.34
2018-03-15T00:09:33.597Z,78.02
2018-03-15T00:10:38.095Z,77.96
2018-03-15T00:11:43.586Z,77.58
2018-03-15T00:12:50.126Z,77.77
2018-03-15T00:13:54.610Z,77.96
2018-03-15T00:15:01.130Z,78.05
2018-03-15T00:16:05.631Z,77.96
2018-03-15T00:17:11.150Z,78.11
2018-03-15T00:18:17.657Z,78.11
2018-03-15T00:19:22.147Z,78.11
2018-03-15T00:20:28.669Z,77.73
2018-03-15T00:21:33.156Z,77.83
2018-03-15T00:22:38.673Z,78.58
2018-03-15T00:23:45.199Z,78.67
2018-03-15T00:24:49.682Z,78.96
2018-03-15T00:25:56.213Z,78.67
2018-03-15T00:27:00.720Z,79.06
2018-03-15T00:28:06.215Z,78.87
2018-03-15T00:29:12.735Z,78.67
2018-03-15T00:30:17.228Z,79.15
2018-03-15T00:31:23.825Z,79.34
2018-03-15T00:32:28.276Z,79.25
2018-03-15T00:33:33.748Z,79.06
2018-03-15T00:34:40.286Z,79.38
2018-03-15T00:35:44.777Z,78.62
2018-03-15T00:36:51.302Z,78.53
2018-03-15T00:37:55.786Z,77.96
2018-03-15T00:39:01.287Z,77.54
2018-03-15T00:40:07.846Z,77.25
2018-03-15T00:41:12.317Z,77.25
2018-03-15T00:42:18.827Z,77.83
2018-03-15T00:43:23.317Z,78.20
2018-03-15T00:44:28.824Z,78.11
2018-03-15T00:45:35.350Z,77.92
2018-03-15T00:46:39.844Z,77.83
2018-03-15T00:47:46.358Z,78.02
2018-03-15T00:48:50.849Z,78.11
2018-03-15T00:49:56.367Z,77.73
2018-03-15T00:51:02.889Z,78.39
2018-03-15T00:52:07.377Z,78.30
2018-03-15T00:53:13.895Z,78.30
2018-03-15T00:54:18.396Z,78.49
2018-03-15T00:55:23.899Z,78.39
2018-03-15T00:56:30.422Z,78.20
2018-03-15T00:57:34.948Z,78.49
2018-03-15T00:58:41.439Z,78.96
2018-03-15T00:59:45.934Z,78.67
2018-03-15T01:00:51.450Z,78.58
2018-03-15T01:01:57.970Z,79.06
2018-03-15T01:03:02.461Z,79.06
2018-03-15T01:04:08.970Z,79.25
2018-03-15T01:05:13.521Z,79.25
2018-03-15T01:06:18.988Z,79.06
2018-03-15T01:07:25.495Z,79.06
2018-03-15T01:08:29.995Z,79.34
2018-03-15T01:09:36.520Z,78.96
2018-03-15T01:10:41.128Z,78.96
2018-03-15T01:11:46.522Z,79.15
2018-03-15T01:12:53.068Z,79.34
2018-03-15T01:13:57.539Z,78.77
2018-03-15T01:15:04.050Z,79.06
2018-03-15T01:16:08.584Z,78.77
2018-03-15T01:17:14.069Z,78.62
2018-03-15T01:18:20.574Z,78.34
2018-03-15T01:19:25.101Z,78.53
2018-03-15T01:20:31.596Z,78.43
2018-03-15T01:21:36.086Z,78.72
2018-03-15T01:22:41.606Z,78.24
2018-03-15T01:23:48.113Z,78.72
2018-03-15T01:24:52.627Z,78.43
2018-03-15T01:25:59.124Z,78.15
2018-03-15T01:27:03.629Z,78.05
2018-03-15T01:28:09.130Z,78.24
2018-03-15T01:29:15.669Z,78.15
2018-03-15T01:30:20.160Z,78.05
2018-03-15T01:31:26.670Z,78.15
2018-03-15T01:32:31.165Z,78.15
2018-03-15T01:33:36.674Z,78.05
2018-03-15T01:34:43.194Z,78.05
2018-03-15T01:35:47.690Z,77.67
2018-03-15T01:36:54.220Z,77.86
2018-03-15T01:37:58.706Z,77.67
2018-03-15T01:39:04.209Z,77.77
2018-03-15T01:40:10.734Z,77.67
2018-03-15T01:41:15.245Z,77.58
2018-03-15T01:42:21.753Z,77.58
2018-03-15T01:43:26.244Z,77.58
2018-03-15T01:44:31.761Z,76.92
2018-03-15T01:45:38.278Z,76.82
2018-03-15T01:46:42.764Z,76.82
2018-03-15T01:47:49.293Z,76.82
2018-03-15T01:48:53.789Z,76.92
2018-03-15T01:49:59.293Z,76.92
2018-03-15T01:51:05.814Z,76.44
2018-03-15T01:52:10.327Z,75.87
2018-03-15T01:53:16.833Z,75.87
2018-03-15T01:54:21.330Z,76.34
2018-03-15T01:55:26.842Z,75.96
2018-03-15T01:56:33.359Z,76.10
2018-03-15T01:57:37.855Z,75.78
2018-03-15T01:58:44.378Z,75.62
2018-03-15T01:59:48.878Z,75.91
2018-03-15T02:00:54.382Z,75.68
2018-03-15T02:02:00.904Z,75.40
2018-03-15T02:03:05.395Z,75.91
2018-03-15T02:04:11.923Z,75.49
2018-03-15T02:05:16.420Z,75.34
2018-03-15T02:06:21.922Z,75.15
2018-03-15T02:07:28.443Z,75.21
2018-03-15T02:08:32.941Z,75.43
2018-03-15T02:09:39.481Z,75.68
2018-03-15T02:10:43.964Z,75.68
2018-03-15T02:11:49.472Z,75.40
2018-03-15T02:12:55.987Z,75.81
2018-03-15T02:14:00.482Z,76.10
2018-03-15T02:15:07.001Z,75.49
2018-03-15T02:16:11.503Z,75.49
2018-03-15T02:17:17.010Z,76.15
2018-03-15T02:18:23.534Z,75.96
2018-03-15T02:19:28.022Z,76.34
2018-03-15T02:20:34.545Z,76.34
2018-03-15T02:21:39.047Z,76.34
2018-03-15T02:22:44.552Z,75.87
2018-03-15T02:23:51.081Z,75.87
2018-03-15T02:24:55.572Z,75.96
2018-03-15T02:26:02.088Z,75.87
2018-03-15T02:27:06.585Z,75.87
2018-03-15T02:28:12.094Z,75.87
2018-03-15T02:29:18.617Z,75.68
2018-03-15T02:30:23.105Z,75.59
2018-03-15T02:31:29.637Z,75.49
2018-03-15T02:32:34.123Z,75.68
2018-03-15T02:33:39.627Z,75.87
2018-03-15T02:34:46.148Z,75.87
2018-03-15T02:35:50.651Z,76.25
2018-03-15T02:36:57.170Z,76.06
2018-03-15T02:38:01.671Z,75.68
2018-03-15T02:39:07.182Z,75.68
2018-03-15T02:40:13.693Z,75.87
2018-03-15T02:41:18.202Z,75.96
2018-03-15T02:42:24.707Z,76.06
2018-03-15T02:43:29.230Z,75.78
2018-03-15T02:44:34.726Z,76.25
2018-03-15T02:45:41.241Z,76.25
2018-03-15T02:46:45.729Z,76.34
2018-03-15T02:47:52.255Z,76.06
2018-03-15T02:48:56.750Z,76.06
2018-03-15T02:50:02.285Z,75.87
2018-03-15T02:51:08.818Z,75.78
2018-03-15T02:52:13.289Z,76.15
2018-03-15T02:53:19.802Z,76.34
2018-03-15T02:54:24.289Z,76.25
2018-03-15T02:55:29.808Z,75.02
2018-03-15T02:56:36.318Z,75.40
2018-03-15T02:57:40.838Z,75.59
2018-03-15T02:58:47.352Z,75.68
2018-03-15T02:59:51.841Z,75.11
2018-03-15T03:00:57.340Z,74.83
2018-03-15T03:02:03.866Z,75.11
2018-03-15T03:03:08.411Z,75.49
2018-03-15T03:04:14.887Z,75.49
2018-03-15T03:05:19.381Z,75.87
2018-03-15T03:06:24.907Z,75.87
2018-03-15T03:07:31.419Z,75.68
2018-03-15T03:08:35.905Z,75.40
2018-03-15T03:09:42.414Z,75.21
2018-03-15T03:10:46.927Z,75.49
2018-03-15T03:11:52.423Z,75.96
2018-03-15T03:12:58.958Z,75.87
2018-03-15T03:14:03.449Z,75.96
2018-03-15T03:15:09.961Z,75.78
2018-03-15T03:16:14.466Z,75.02
2018-03-15T03:17:19.965Z,75.31
2018-03-15T03:18:26.490Z,75.40
2018-03-15T03:19:30.983Z,75.11
2018-03-15T03:20:37.542Z,75.31
2018-03-15T03:21:42.000Z,75.21
2018-03-15T03:22:47.512Z,75.31
2018-03-15T03:23:54.023Z,75.68
2018-03-15T03:24:58.529Z,75.21
2018-03-15T03:26:05.038Z,75.11
2018-03-15T03:27:09.543Z,75.68
2018-03-15T03:28:15.085Z,75.49
2018-03-15T03:29:21.593Z,75.21
2018-03-15T03:30:26.075Z,75.49
2018-03-15T03:31:32.715Z,75.31
2018-03-15T03:32:37.087Z,75.68
2018-03-15T03:33:42.602Z,75.02
2018-03-15T03:34:49.110Z,75.59
2018-03-15T03:35:53.654Z,75.49
2018-03-15T03:37:00.141Z,74.92
2018-03-15T03:38:04.624Z,74.83
2018-03-15T03:39:10.132Z,74.64
2018-03-15T03:40:16.654Z,75.02
2018-03-15T03:41:21.154Z,75.21
2018-03-15T03:42:27.667Z,75.11
2018-03-15T03:43:32.172Z,75.21
2018-03-15T03:44:37.665Z,74.92
2018-03-15T03:45:44.196Z,75.40
2018-03-15T03:46:48.700Z,75.40
2018-03-15T03:47:55.206Z,75.49
2018-03-15T03:48:59.708Z,75.49
2018-03-15T03:50:05.215Z,75.31
2018-03-15T03:51:11.730Z,75.40
2018-03-15T03:52:16.237Z,75.31
2018-03-15T03:53:22.748Z,75.31
2018-03-15T03:54:27.248Z,75.21
2018-03-15T03:55:32.767Z,75.40
2018-03-15T03:56:39.280Z,75.02
2018-03-15T03:57:43.770Z,75.21
2018-03-15T03:58:50.291Z,75.21
2018-03-15T03:59:54.797Z,75.49
2018-03-15T04:01:00.311Z,75.02
2018-03-15T04:02:06.810Z,74.92
2018-03-15T04:03:11.328Z,74.92
2018-03-15T04:04:17.841Z,74.73
2018-03-15T04:05:22.333Z,75.11
2018-03-15T04:06:27.835Z,75.02
2018-03-15T04:07:34.356Z,75.11
2018-03-15T04:08:38.853Z,75.02
2018-03-15T04:09:45.376Z,74.35
2018-03-15T04:10:49.880Z,74.54
2018-03-15T04:11:55.381Z,74.83
2018-03-15T04:13:01.908Z,74.35
2018-03-15T04:14:06.394Z,74.73
2018-03-15T04:15:12.909Z,74.83
2018-03-15T04:16:17.421Z,74.64
2018-03-15T04:17:22.914Z,74.35
2018-03-15T04:18:29.437Z,74.45
2018-03-15T04:19:33.938Z,74.64
2018-03-15T04:20:40.456Z,74.73
2018-03-15T04:21:45.024Z,74.35
2018-03-15T04:22:50.450Z,74.64
2018-03-15T04:23:56.973Z,74.07
2018-03-15T04:25:01.476Z,74.54
2018-03-15T04:26:07.988Z,74.16
2018-03-15T04:27:12.616Z,74.45
2018-03-15T04:28:17.992Z,74.35
2018-03-15T04:29:24.520Z,74.64
2018-03-15T04:30:29.005Z,74.64
2018-03-15T04:31:35.527Z,74.73
2018-03-15T04:32:40.031Z,74.64
2018-03-15T04:33:45.536Z,74.92
2018-03-15T04:34:52.054Z,74.64
2018-03-15T04:35:56.561Z,74.54
2018-03-15T04:37:03.083Z,74.35
2018-03-15T04:38:07.578Z,74.35
2018-03-15T04:39:13.072Z,74.07
2018-03-15T04:40:19.598Z,74.35
2018-03-15T04:41:24.097Z,74.16
2018-03-15T04:42:30.612Z,73.69
2018-03-15T04:43:35.105Z,73.69
2018-03-15T04:44:40.613Z,73.41
2018-03-15T04:45:47.141Z,72.93
2018-03-15T04:46:51.630Z,73.50
2018-03-15T04:47:58.186Z,73.03
2018-03-15T04:49:02.647Z,73.22
2018-03-15T04:50:08.171Z,73.03
2018-03-15T04:51:14.686Z,73.31
2018-03-15T04:52:19.168Z,73.03
2018-03-15T04:53:25.696Z,73.12
2018-03-15T04:54:30.193Z,73.31
2018-03-15T04:55:35.704Z,73.41
2018-03-15T04:56:42.215Z,73.22
2018-03-15T04:57:46.718Z,72.93
2018-03-15T04:58:53.232Z,72.74
2018-03-15T04:59:57.732Z,72.36
2018-03-15T05:01:03.248Z,72.27
2018-03-15T05:02:09.761Z,72.55
2018-03-15T05:03:14.254Z,72.45
2018-03-15T05:04:20.774Z,72.27
2018-03-15T05:05:25.272Z,71.51
2018-03-15T05:06:30.788Z,71.51
2018-03-15T05:07:37.299Z,71.98
2018-03-15T05:08:41.802Z,71.41
2018-03-15T05:09:48.314Z,71.80
2018-03-15T05:10:52.816Z,71.60
2018-03-15T05:11:58.371Z,71.22
2018-03-15T05:13:04.840Z,71.22
2018-03-15T05:14:09.333Z,71.36
2018-03-15T05:15:15.865Z,70.84
2018-03-15T05:16:20.351Z,71.22
2018-03-15T05:17:25.871Z,71.03
2018-03-15T05:18:32.386Z,70.88
2018-03-15T05:19:36.871Z,71.22
2018-03-15T05:20:43.399Z,70.21
2018-03-15T05:21:47.900Z,70.56
2018-03-15T05:22:53.407Z,70.69
2018-03-15T05:23:59.936Z,70.84
2018-03-15T05:25:04.419Z,70.59
2018-03-15T05:26:10.946Z,70.21
2018-03-15T05:27:15.440Z,70.40
2018-03-15T05:28:20.951Z,70.21
2018-03-15T05:29:27.470Z,70.59
2018-03-15T05:30:31.960Z,70.21
2018-03-15T05:31:38.474Z,70.03
2018-03-15T05:32:42.973Z,69.93
2018-03-15T05:33:48.487Z,70.12
2018-03-15T05:34:55.019Z,69.93
2018-03-15T05:35:59.511Z,69.55
2018-03-15T05:37:06.046Z,69.93
2018-03-15T05:38:10.533Z,69.27
2018-03-15T05:39:16.033Z,69.74
2018-03-15T05:40:22.549Z,69.74
2018-03-15T05:41:27.062Z,69.74
2018-03-15T05:42:33.570Z,69.93
2018-03-15T05:43:38.059Z,71.26
2018-03-15T05:44:43.577Z,71.36
2018-03-15T05:45:50.102Z,71.36
2018-03-15T05:46:54.596Z,70.50
2018-03-15T05:48:01.113Z,70.03
2018-03-15T05:49:05.609Z,70.03
2018-03-15T05:50:11.117Z,70.21
2018-03-15T05:51:17.628Z,69.93
2018-03-15T05:52:22.129Z,70.03
2018-03-15T05:53:28.662Z,70.31
2018-03-15T05:54:33.149Z,70.12
2018-03-15T05:55:38.671Z,70.03
2018-03-15T05:56:45.216Z,70.03
2018-03-15T05:57:49.680Z,69.84
2018-03-15T05:58:56.186Z,69.65
2018-03-15T06:00:00.693Z,69.84
2018-03-15T06:01:06.231Z,69.74
2018-03-15T06:02:12.729Z,69.93
2018-03-15T06:03:17.229Z,69.46
2018-03-15T06:04:23.738Z,69.46
2018-03-15T06:05:28.234Z,69.84
2018-03-15T06:06:33.739Z,69.36
2018-03-15T06:07:40.265Z,69.27
2018-03-15T06:08:44.773Z,69.17
2018-03-15T06:09:51.283Z,68.98
2018-03-15T06:10:55.794Z,69.36
2018-03-15T06:12:01.287Z,69.46
2018-03-15T06:13:07.802Z,69.55
2018-03-15T06:14:12.303Z,68.98
2018-03-15T06:15:18.825Z,68.41
2018-03-15T06:16:23.317Z,68.60
2018-03-15T06:17:28.837Z,67.50
2018-03-15T06:18:35.348Z,67.59
2018-03-15T06:19:39.839Z,67.21
2018-03-15T06:20:46.361Z,67.31
2018-03-15T06:21:50.862Z,66.83
2018-03-15T06:22:56.365Z,66.74
2018-03-15T06:24:02.904Z,66.74
2018-03-15T06:25:07.389Z,66.93
2018-03-15T06:26:13.898Z,67.21
2018-03-15T06:27:18.398Z,66.74
2018-03-15T06:28:23.917Z,67.50
2018-03-15T06:29:30.429Z,67.21
2018-03-15T06:30:34.926Z,67.50
2018-03-15T06:31:41.442Z,67.69
2018-03-15T06:32:45.955Z,68.16
2018-03-15T06:33:51.554Z,68.04
2018-03-15T06:34:57.993Z,68.13
2018-03-15T06:36:02.473Z,68.70
2018-03-15T06:37:09.051Z,68.41
2018-03-15T06:38:13.489Z,68.70
2018-03-15T06:39:18.999Z,68.98
2018-03-15T06:40:25.619Z,68.70
2018-03-15T06:41:30.014Z,68.98
2018-03-15T06:42:36.528Z,68.70
2018-03-15T06:43:41.025Z,68.51
2018-03-15T06:44:46.536Z,69.08
2018-03-15T06:45:53.061Z,68.89
2018-03-15T06:46:57.548Z,69.08
2018-03-15T06:48:04.068Z,68.60
2018-03-15T06:49:08.572Z,68.60
2018-03-15T06:50:14.087Z,68.79
2018-03-15T06:51:20.624Z,68.79
2018-03-15T06:52:25.108Z,68.70
2018-03-15T06:53:31.627Z,68.60
2018-03-15T06:54:36.118Z,68.70
2018-03-15T06:55:41.644Z,68.51
2018-03-15T06:56:48.141Z,68.79
2018-03-15T06:57:52.666Z,68.89
2018-03-15T06:58:59.157Z,68.70
2018-03-15T07:00:03.663Z,68.60
2018-03-15T07:01:09.159Z,68.41
2018-03-15T07:02:15.680Z,68.60
2018-03-15T07:03:20.189Z,68.60
2018-03-15T07:04:26.692Z,68.64
2018-03-15T07:05:31.190Z,68.83
2018-03-15T07:06:36.710Z,68.51
2018-03-15T07:07:43.226Z,68.73
2018-03-15T07:08:47.728Z,68.73
2018-03-15T07:09:54.239Z,68.54
2018-03-15T07:10:58.748Z,68.73
2018-03-15T07:12:04.250Z,68.54
2018-03-15T07:13:10.767Z,68.92
2018-03-15T07:14:15.276Z,68.64
2018-03-15T07:15:21.787Z,69.30
2018-03-15T07:16:26.292Z,69.02
2018-03-15T07:17:31.790Z,74.15
2018-03-15T07:18:38.347Z,73.86
2018-03-15T07:19:42.804Z,71.30
2018-03-15T07:20:49.348Z,69.68
2018-03-15T07:21:53.827Z,69.30
2018-03-15T07:22:59.352Z,68.83
2018-03-15T07:24:05.868Z,68.86
2018-03-15T07:25:10.369Z,68.54
2018-03-15T07:26:16.874Z,67.53
2018-03-15T07:27:21.374Z,68.10
2018-03-15T07:28:26.884Z,68.19
2018-03-15T07:29:33.420Z,67.15
2018-03-15T07:30:37.908Z,67.25
2018-03-15T07:31:44.411Z,67.25
2018-03-15T07:32:48.928Z,67.53
2018-03-15T07:33:54.424Z,67.15
2018-03-15T07:35:00.953Z,67.06
2018-03-15T07:36:05.435Z,67.25
2018-03-15T07:37:11.955Z,67.25
2018-03-15T07:38:16.456Z,67.44
2018-03-15T07:39:22.033Z,67.25
2018-03-15T07:40:28.481Z,67.53
2018-03-15T07:41:32.992Z,67.53
2018-03-15T07:42:39.509Z,67.53
2018-03-15T07:43:44.023Z,67.34
2018-03-15T07:44:49.541Z,67.53
2018-03-15T07:45:56.059Z,67.25
2018-03-15T07:47:00.546Z,67.34
2018-03-15T07:48:07.073Z,67.53
2018-03-15T07:49:11.548Z,67.15
2018-03-15T07:50:17.075Z,67.25
2018-03-15T07:51:23.583Z,67.06
2018-03-15T07:52:28.149Z,66.90
2018-03-15T07:53:34.612Z,67.06
2018-03-15T07:54:39.102Z,67.09
2018-03-15T07:55:44.610Z,66.42
2018-03-15T07:56:51.127Z,66.52
2018-03-15T07:57:55.625Z,66.90
2018-03-15T07:59:02.159Z,67.09
2018-03-15T08:00:06.641Z,66.52
2018-03-15T08:01:12.167Z,66.52
2018-03-15T08:02:18.675Z,65.95
2018-03-15T08:03:23.177Z,65.09
2018-03-15T08:04:29.700Z,65.57
2018-03-15T08:05:34.206Z,65.19
2018-03-15T08:06:39.711Z,65.09
2018-03-15T08:07:46.228Z,65.57
2018-03-15T08:08:50.728Z,65.22
2018-03-15T08:09:57.247Z,65.38
2018-03-15T08:11:01.745Z,64.72
2018-03-15T08:12:07.264Z,65.13
2018-03-15T08:13:13.770Z,64.94
2018-03-15T08:14:18.270Z,65.03
2018-03-15T08:15:24.799Z,63.99
2018-03-15T08:16:29.308Z,64.37
2018-03-15T08:17:34.802Z,64.27
2018-03-15T08:18:41.318Z,63.89
2018-03-15T08:19:45.831Z,64.27
2018-03-15T08:20:52.432Z,63.70
2018-03-15T08:21:56.860Z,64.37
2018-03-15T08:23:02.353Z,63.70
2018-03-15T08:24:08.875Z,63.89
2018-03-15T08:25:13.443Z,63.92
2018-03-15T08:26:19.894Z,63.83
2018-03-15T08:27:24.411Z,63.92
2018-03-15T08:28:30.015Z,62.88
2018-03-15T08:29:36.435Z,62.21
2018-03-15T08:30:40.927Z,62.02
2018-03-15T08:31:47.439Z,62.02
2018-03-15T08:32:51.956Z,62.21
2018-03-15T08:33:57.459Z,62.02
2018-03-15T08:35:03.986Z,62.30
2018-03-15T08:36:08.487Z,61.00
2018-03-15T08:37:15.019Z,60.53
2018-03-15T08:38:19.507Z,60.91
2018-03-15T08:39:25.030Z,61.10
2018-03-15T08:40:31.529Z,60.44
2018-03-15T08:41:36.048Z,59.96
2018-03-15T08:42:42.552Z,59.58
2018-03-15T08:43:47.054Z,60.05
2018-03-15T08:44:52.549Z,60.05
2018-03-15T08:45:59.086Z,59.29
2018-03-15T08:47:03.582Z,59.39
2018-03-15T08:48:10.102Z,59.42
2018-03-15T08:49:14.602Z,59.51
2018-03-15T08:50:20.121Z,59.70
2018-03-15T08:51:26.629Z,58.37
2018-03-15T08:52:31.149Z,58.47
2018-03-15T08:53:37.654Z,58.94
2018-03-15T08:54:42.158Z,58.84
2018-03-15T08:55:47.664Z,59.51
2018-03-15T08:56:54.196Z,58.37
2018-03-15T08:57:58.692Z,57.64
2018-03-15T08:59:05.218Z,57.73
2018-03-15T09:00:09.717Z,57.82
2018-03-15T09:01:15.226Z,56.78
2018-03-15T09:02:21.750Z,56.97
2018-03-15T09:03:26.263Z,56.49
2018-03-15T09:04:32.767Z,56.78
2018-03-15T09:05:37.457Z,56.59
2018-03-15T09:06:42.794Z,56.97
2018-03-15T09:07:49.298Z,56.87
2018-03-15T09:08:53.926Z,56.21
2018-03-15T09:10:00.331Z,55.16
2018-03-15T09:11:04.866Z,55.00
2018-03-15T09:12:10.341Z,55.76
2018-03-15T09:13:16.860Z,55.95
2018-03-15T09:14:21.370Z,55.85
2018-03-15T09:15:27.905Z,56.14
2018-03-15T09:16:32.381Z,55.76
2018-03-15T09:17:37.887Z,55.85
2018-03-15T09:18:44.446Z,55.00
2018-03-15T09:19:48.912Z,55.00
2018-03-15T09:20:55.443Z,55.00
2018-03-15T09:21:59.946Z,54.61
2018-03-15T09:23:05.500Z,54.36
2018-03-15T09:24:11.975Z,54.61
2018-03-15T09:25:16.485Z,54.36
2018-03-15T09:26:22.999Z,53.88
2018-03-15T09:27:27.502Z,53.59
2018-03-15T09:28:33.016Z,53.97
2018-03-15T09:29:39.542Z,53.69
2018-03-15T09:30:44.076Z,53.12
2018-03-15T09:31:50.564Z,53.97
2018-03-15T09:32:55.069Z,53.88
2018-03-15T09:34:00.593Z,53.97
2018-03-15T09:35:07.095Z,53.12
2018-03-15T09:36:11.620Z,51.88
2018-03-15T09:37:18.130Z,52.45
2018-03-15T09:38:22.628Z,52.26
2018-03-15T09:39:28.158Z,52.36
2018-03-15T09:40:34.692Z,52.19
2018-03-15T09:41:39.181Z,52.38
2018-03-15T09:42:45.684Z,52.76
2018-03-15T09:43:50.197Z,53.24
2018-03-15T09:44:55.701Z,52.76
2018-03-15T09:46:02.230Z,52.19
2018-03-15T09:47:06.729Z,51.62
2018-03-15T09:48:13.243Z,51.33
2018-03-15T09:49:17.759Z,51.62
2018-03-15T09:50:23.275Z,52.00
2018-03-15T09:51:29.784Z,52.00
2018-03-15T09:52:34.281Z,52.09
2018-03-15T09:53:40.814Z,51.43
2018-03-15T09:54:45.316Z,51.33
2018-03-15T09:55:50.834Z,50.21
2018-03-15T09:56:58.481Z,49.83
2018-03-15T09:58:01.898Z,49.83
2018-03-15T09:59:08.392Z,49.35
2018-03-15T10:00:12.902Z,49.64
2018-03-15T10:01:18.403Z,49.54
2018-03-15T10:02:24.912Z,49.54
2018-03-15T10:03:29.427Z,48.97
2018-03-15T10:04:35.940Z,49.54
2018-03-15T10:05:40.442Z,47.92
2018-03-15T10:06:45.945Z,48.11
2018-03-15T10:07:52.473Z,48.68
2018-03-15T10:08:56.971Z,47.63
2018-03-15T10:10:03.504Z,47.27
2018-03-15T10:11:08.009Z,46.99
2018-03-15T10:12:13.517Z,47.37
2018-03-15T10:13:20.042Z,46.42
2018-03-15T10:14:24.535Z,47.18
2018-03-15T10:15:31.072Z,47.18
2018-03-15T10:16:35.563Z,47.08
2018-03-15T10:17:41.069Z,46.32
2018-03-15T10:18:47.624Z,46.42
2018-03-15T10:19:52.106Z,46.32
2018-03-15T10:20:58.773Z,46.13
2018-03-15T10:22:03.216Z,47.08
2018-03-15T10:23:08.638Z,46.61
2018-03-15T10:24:15.168Z,46.80
2018-03-15T10:25:26.389Z,46.61
2018-03-15T10:26:26.199Z,46.80
2018-03-15T10:27:30.787Z,46.42
2018-03-15T10:28:36.215Z,46.72
2018-03-15T10:29:42.741Z,46.25
2018-03-15T10:30:47.242Z,46.15
2018-03-15T10:31:53.767Z,45.87
2018-03-15T10:32:58.268Z,45.87
2018-03-15T10:34:03.775Z,45.96
2018-03-15T10:35:10.312Z,44.91
2018-03-15T10:36:14.811Z,44.62
2018-03-15T10:37:21.367Z,44.72
2018-03-15T10:38:25.839Z,44.81
2018-03-15T10:39:31.535Z,44.91
2018-03-15T10:40:37.886Z,44.65
2018-03-15T10:41:43.265Z,43.79
2018-03-15T10:42:48.908Z,42.93
2018-03-15T10:43:53.406Z,43.69
2018-03-15T10:44:58.920Z,43.88
2018-03-15T10:46:05.437Z,43.69
2018-03-15T10:47:09.936Z,43.69
2018-03-15T10:48:16.492Z,43.50
2018-03-15T10:49:20.970Z,43.79
2018-03-15T10:50:27.120Z,43.69
2018-03-15T10:51:33.011Z,43.80
2018-03-15T10:52:37.632Z,43.52
2018-03-15T10:53:44.068Z,43.80
2018-03-15T10:54:48.561Z,44.00
2018-03-15T10:55:54.045Z,43.62
2018-03-15T10:57:00.586Z,43.90
2018-03-15T10:58:05.084Z,42.85
2018-03-15T10:59:11.630Z,42.37
2018-03-15T11:00:16.107Z,42.66
2018-03-15T11:01:21.616Z,42.40
2018-03-15T11:02:28.161Z,42.40
2018-03-15T11:03:32.669Z,42.30
2018-03-15T11:04:39.200Z,42.20
2018-03-15T11:05:43.775Z,42.40
2018-03-15T11:06:49.210Z,42.68
2018-03-15T11:07:55.722Z,42.58
2018-03-15T11:09:00.266Z,42.49
2018-03-15T11:10:06.757Z,42.68
2018-03-15T11:11:11.269Z,42.13
2018-03-15T11:12:16.769Z,41.91
2018-03-15T11:13:23.294Z,41.55
2018-03-15T11:14:27.792Z,41.65
2018-03-15T11:15:34.326Z,42.13
2018-03-15T11:16:38.852Z,42.32
2018-03-15T11:17:44.344Z,41.94
2018-03-15T11:18:50.885Z,41.55
2018-03-15T11:19:55.359Z,42.03
2018-03-15T11:21:01.921Z,41.94
2018-03-15T11:22:06.492Z,42.22
2018-03-15T11:23:11.932Z,40.98
2018-03-15T11:24:18.447Z,41.27
2018-03-15T11:25:22.979Z,40.50
2018-03-15T11:26:29.500Z,39.83
2018-03-15T11:27:34.018Z,40.31
2018-03-15T11:28:39.514Z,39.90
2018-03-15T11:29:46.015Z,40.29
2018-03-15T11:30:50.527Z,40.19
2018-03-15T11:31:57.040Z,40.95
2018-03-15T11:33:01.543Z,40.59
2018-03-15T11:34:07.058Z,41.46
2018-03-15T11:35:13.593Z,40.88
2018-03-15T11:36:18.138Z,41.07
2018-03-15T11:37:24.667Z,41.65
2018-03-15T11:38:29.116Z,41.74
2018-03-15T11:39:34.653Z,42.22
2018-03-15T11:40:41.161Z,42.53
2018-03-15T11:41:45.664Z,40.90
2018-03-15T11:42:52.196Z,39.94
2018-03-15T11:43:56.689Z,39.65
2018-03-15T11:45:02.250Z,39.37
2018-03-15T11:46:08.745Z,39.94
2018-03-15T11:47:13.240Z,39.94
2018-03-15T11:48:19.794Z,39.94
2018-03-15T11:49:24.269Z,39.75
2018-03-15T11:50:29.792Z,39.47
2018-03-15T11:51:36.307Z,39.37
2018-03-15T11:52:40.829Z,38.51
2018-03-15T11:53:47.338Z,38.89
2018-03-15T11:54:51.848Z,39.56
2018-03-15T11:55:57.361Z,40.33
2018-03-15T11:57:03.898Z,39.75
2018-03-15T11:58:08.391Z,39.85
2018-03-15T11:59:14.933Z,39.94
2018-03-15T12:00:19.509Z,39.47
2018-03-15T12:01:24.953Z,39.08
2018-03-15T12:02:31.474Z,38.32
2018-03-15T12:03:35.964Z,38.03
2018-03-15T12:04:42.499Z,37.65
2018-03-15T12:05:46.998Z,37.45
2018-03-15T12:06:52.517Z,37.84
2018-03-15T12:07:59.055Z,38.03
2018-03-15T12:09:03.545Z,38.22
2018-03-15T12:10:10.076Z,38.32
2018-03-15T12:11:14.574Z,38.60
2018-03-15T12:12:20.099Z,37.65
2018-03-15T12:13:26.639Z,38.22
2018-03-15T12:14:31.141Z,37.74
2018-03-15T12:15:37.652Z,37.65
2018-03-15T12:16:42.153Z,38.32
2018-03-15T12:17:47.674Z,37.26
2018-03-15T12:18:54.203Z,36.88
2018-03-15T12:19:58.708Z,37.76
2018-03-15T12:21:05.236Z,38.14
2018-03-15T12:22:09.744Z,38.07
2018-03-15T12:23:15.251Z,38.45
2018-03-15T12:24:21.771Z,38.56
2018-03-15T12:25:26.333Z,36.74
2018-03-15T12:26:32.800Z,36.18
2018-03-15T12:27:37.309Z,34.75
2018-03-15T12:28:42.832Z,35.22
2018-03-15T12:29:49.347Z,35.42
2018-03-15T12:30:53.863Z,35.71
2018-03-15T12:32:00.377Z,35.22
2018-03-15T12:33:04.893Z,34.76
2018-03-15T12:34:10.413Z,33.80
2018-03-15T12:35:16.932Z,33.90
2018-03-15T12:36:21.434Z,34.20
2018-03-15T12:37:27.988Z,34.30
2018-03-15T12:38:32.471Z,33.16
2018-03-15T12:39:37.991Z,32.87
2018-03-15T12:40:44.508Z,33.54
2018-03-15T12:41:49.015Z,34.43
2018-03-15T12:42:55.551Z,33.95
2018-03-15T12:44:00.056Z,33.18
2018-03-15T12:45:05.564Z,32.71
2018-03-15T12:46:12.092Z,32.62
2018-03-15T12:47:16.608Z,30.60
2018-03-15T12:48:23.141Z,30.21
2018-03-15T12:49:27.626Z,30.60
2018-03-15T12:50:33.142Z,30.50
2018-03-15T12:51:39.677Z,30.21
2018-03-15T12:52:44.202Z,30.49
2018-03-15T12:53:50.721Z,31.26
2018-03-15T12:54:55.392Z,31.83
2018-03-15T12:56:00.746Z,32.31
2018-03-15T12:57:07.354Z,32.12
2018-03-15T12:58:11.778Z,31.74
2018-03-15T12:59:18.343Z,31.45
2018-03-15T13:00:22.809Z,30.77
2018-03-15T13:01:28.316Z,30.87
2018-03-15T13:02:34.851Z,31.35
2018-03-15T13:03:39.353Z,31.83
2018-03-15T13:04:45.876Z,31.54
2018-03-15T13:05:50.408Z,32.12
2018-03-15T13:06:55.921Z,32.03
2018-03-15T13:08:02.435Z,31.83
2018-03-15T13:09:06.946Z,32.31
2018-03-15T13:10:13.492Z,31.65
2018-03-15T13:11:17.973Z,30.60
2018-03-15T13:12:23.486Z,30.50
2018-03-15T13:13:30.020Z,29.46
2018-03-15T13:14:34.538Z,29.46
2018-03-15T13:15:41.063Z,29.38
2018-03-15T13:16:45.560Z,28.52
2018-03-15T13:17:51.104Z,29.00
2018-03-15T13:18:57.607Z,28.52
2018-03-15T13:20:02.133Z,27.94
2018-03-15T13:21:08.649Z,27.85
2018-03-15T13:22:13.162Z,26.50
2018-03-15T13:23:18.660Z,25.71
2018-03-15T13:24:25.218Z,27.16
2018-03-15T13:25:29.720Z,28.03
2018-03-15T13:26:36.242Z,28.51
2018-03-15T13:27:40.822Z,27.93
2018-03-15T13:28:46.257Z,27.62
2018-03-15T13:29:52.778Z,26.46
2018-03-15T13:30:57.297Z,27.81
2018-03-15T13:32:03.854Z,29.25
2018-03-15T13:33:08.364Z,29.54
2018-03-15T13:34:13.859Z,28.85
2018-03-15T13:35:20.381Z,28.37
2018-03-15T13:36:24.912Z,29.33
2018-03-15T13:37:31.423Z,30.19
2018-03-15T13:38:35.926Z,30.47
2018-03-15T13:39:41.428Z,30.47
2018-03-15T13:40:47.955Z,30.36
2018-03-15T13:41:52.483Z,30.07
2018-03-15T13:42:59.020Z,29.86
2018-03-15T13:44:03.507Z,30.25
2018-03-15T13:45:09.026Z,31.21
2018-03-15T13:46:15.552Z,31.38
2018-03-15T13:47:20.059Z,31.58
2018-03-15T13:48:26.594Z,31.58
2018-03-15T13:49:31.089Z,31.58
2018-03-15T13:50:36.625Z,32.33
2018-03-15T13:51:43.126Z,33.39
2018-03-15T13:52:47.634Z,33.77
2018-03-15T13:53:54.156Z,33.39
2018-03-15T13:54:58.689Z,33.56
2018-03-15T13:56:04.181Z,33.08
2018-03-15T13:57:10.725Z,32.98
2018-03-15T13:58:15.243Z,33.17
2018-03-15T13:59:21.841Z,33.84
2018-03-15T14:00:26.280Z,34.23
2018-03-15T14:01:31.783Z,33.84
2018-03-15T14:02:38.336Z,33.84
2018-03-15T14:03:42.870Z,33.64